createdAt,value
2023-05-09T00:01:14.878Z,101826.89
2023-05-09T00:03:47.737Z,101820.27
2023-05-09T00:06:20.155Z,101828.04
2023-05-09T00:08:52.393Z,101827.44
2023-05-09T00:11:24.797Z,101826.36
2023-05-09T00:13:57.491Z,101823.23
2023-05-09T00:16:29.988Z,101823.20
2023-05-09T00:19:03.384Z,101820.59
2023-05-09T00:21:35.918Z,101820.73
2023-05-09T00:24:09.267Z,101822.95
2023-05-09T00:26:41.603Z,101824.48
2023-05-09T00:29:13.958Z,101821.71
2023-05-09T00:31:46.224Z,101818.61
2023-05-09T00:34:18.371Z,101815.71
2023-05-09T00:36:51.001Z,101787.79
2023-05-09T00:39:23.266Z,101813.69
2023-05-09T00:41:56.915Z,101810.95
2023-05-09T00:44:29.155Z,101811.39
2023-05-09T00:47:01.518Z,101810.08
2023-05-09T00:49:34.183Z,101805.86
2023-05-09T00:52:07.982Z,101805.20
2023-05-09T00:54:40.494Z,101802.98
2023-05-09T00:57:13.080Z,101798.59
2023-05-09T00:59:45.519Z,101797.50
2023-05-09T01:02:18.505Z,101798.56
2023-05-09T01:04:51.359Z,101794.54
2023-05-09T01:07:31.540Z,101789.15
2023-05-09T01:10:09.329Z,101792.44
2023-05-09T01:12:51.199Z,101788.69
2023-05-09T01:15:30.570Z,101792.83
2023-05-09T01:18:11.044Z,101790.64
2023-05-09T01:20:47.512Z,101788.77
2023-05-09T01:23:46.260Z,101788.27
2023-05-09T01:26:26.838Z,101789.91
2023-05-09T01:29:27.170Z,101787.08
2023-05-09T01:32:01.257Z,101788.42
2023-05-09T01:34:36.721Z,101784.25
2023-05-09T01:37:10.856Z,101783.02
2023-05-09T01:39:47.969Z,101785.26
2023-05-09T01:42:22.561Z,101784.01
2023-05-09T01:44:53.974Z,101786.47
2023-05-09T01:47:26.831Z,101785.65
2023-05-09T01:50:01.091Z,101783.84
2023-05-09T01:52:36.461Z,101780.20
2023-05-09T01:55:12.192Z,101781.55
2023-05-09T01:57:45.823Z,101775.48
2023-05-09T02:00:20.092Z,101779.02
2023-05-09T02:02:53.333Z,101773.52
2023-05-09T02:05:29.808Z,101773.86
2023-05-09T02:08:02.130Z,101774.77
2023-05-09T02:10:36.455Z,101772.63
2023-05-09T02:13:10.269Z,101771.30
2023-05-09T02:15:43.372Z,101765.22
2023-05-09T02:18:16.924Z,101759.83
2023-05-09T02:20:49.441Z,101761.91
2023-05-09T02:23:23.599Z,101759.14
2023-05-09T02:25:56.154Z,101758.50
2023-05-09T02:28:29.709Z,101756.37
2023-05-09T02:31:06.509Z,101754.80
2023-05-09T02:33:40.590Z,101753.89
2023-05-09T02:36:15.393Z,101756.08
2023-05-09T02:38:49.056Z,101754.20
2023-05-09T02:41:21.835Z,101740.48
2023-05-09T02:43:54.129Z,101750.98
2023-05-09T02:46:27.128Z,101754.05
2023-05-09T02:48:59.551Z,101752.75
2023-05-09T02:51:32.477Z,101751.33
2023-05-09T02:54:05.116Z,101751.13
2023-05-09T02:56:37.339Z,101752.38
2023-05-09T02:59:09.558Z,101753.63
2023-05-09T03:01:41.813Z,101753.70
2023-05-09T03:04:15.050Z,101754.69
2023-05-09T03:06:47.559Z,101755.77
2023-05-09T03:09:20.144Z,101754.16
2023-05-09T03:11:52.666Z,101752.49
2023-05-09T03:14:25.138Z,101746.20
2023-05-09T03:16:57.586Z,101745.48
2023-05-09T03:19:37.236Z,101746.43
2023-05-09T03:22:10.558Z,101745.53
2023-05-09T03:24:44.239Z,101744.66
2023-05-09T03:27:16.763Z,101746.52
2023-05-09T03:29:49.361Z,101746.68
2023-05-09T03:32:21.827Z,101747.08
2023-05-09T03:34:54.832Z,101744.27
2023-05-09T03:37:27.350Z,101749.29
2023-05-09T03:40:00.159Z,101747.10
2023-05-09T03:42:34.124Z,101744.45
2023-05-09T03:45:07.368Z,101740.66
2023-05-09T03:47:40.004Z,101746.58
2023-05-09T03:50:13.748Z,101744.52
2023-05-09T03:52:47.668Z,101744.60
2023-05-09T03:55:23.788Z,101741.50
2023-05-09T03:57:55.004Z,101744.56
2023-05-09T04:00:28.004Z,101741.29
2023-05-09T04:03:06.578Z,101747.13
2023-05-09T04:05:43.274Z,101744.09
2023-05-09T04:08:20.154Z,101732.75
2023-05-09T04:10:53.260Z,101736.83
2023-05-09T04:13:25.758Z,101740.36
2023-05-09T04:15:58.409Z,101741.02
2023-05-09T04:18:31.362Z,101743.06
2023-05-09T04:21:03.742Z,101740.45
2023-05-09T04:23:36.320Z,101744.33
2023-05-09T04:26:09.826Z,101746.55
2023-05-09T04:28:42.301Z,101745.86
2023-05-09T04:31:15.411Z,101744.69
2023-05-09T04:33:49.118Z,101743.84
2023-05-09T04:36:22.242Z,101731.96
2023-05-09T04:38:54.742Z,101742.65
2023-05-09T04:41:29.792Z,101739.30
2023-05-09T04:44:02.789Z,101740.23
2023-05-09T04:46:35.537Z,101744.14
2023-05-09T04:49:08.114Z,101739.36
2023-05-09T04:51:40.572Z,101738.89
2023-05-09T04:54:13.519Z,101737.42
2023-05-09T04:56:47.854Z,101740.09
2023-05-09T04:59:21.512Z,101740.30
2023-05-09T05:01:55.736Z,101745.64
2023-05-09T05:04:28.351Z,101730.80
2023-05-09T05:07:01.061Z,101744.55
2023-05-09T05:09:33.280Z,101743.42
2023-05-09T05:12:09.285Z,101740.85
2023-05-09T05:14:42.632Z,101743.39
2023-05-09T05:17:17.460Z,101740.35
2023-05-09T05:19:50.497Z,101744.58
2023-05-09T05:22:23.416Z,101744.10
2023-05-09T05:24:56.259Z,101743.98
2023-05-09T05:27:29.369Z,101742.98
2023-05-09T05:30:02.469Z,101741.83
2023-05-09T05:32:34.862Z,101741.89
2023-05-09T05:35:08.213Z,101746.23
2023-05-09T05:37:41.547Z,101745.91
2023-05-09T05:40:14.370Z,101742.52
2023-05-09T05:42:48.921Z,101744.67
2023-05-09T05:45:22.004Z,101744.27
2023-05-09T05:47:56.974Z,101745.42
2023-05-09T05:50:30.588Z,101745.34
2023-05-09T05:53:03.626Z,101748.77
2023-05-09T05:55:36.381Z,101751.76
2023-05-09T05:58:10.485Z,101749.13
2023-05-09T06:00:43.219Z,101747.44
2023-05-09T06:03:16.196Z,101743.89
2023-05-09T06:05:57.892Z,101741.42
2023-05-09T06:08:30.326Z,101732.25
2023-05-09T06:11:05.997Z,101742.31
2023-05-09T06:13:38.332Z,101735.89
2023-05-09T06:16:19.596Z,101733.96
2023-05-09T06:18:55.877Z,101736.04
2023-05-09T06:21:28.405Z,101735.23
2023-05-09T06:24:08.353Z,101737.05
2023-05-09T06:26:42.488Z,101743.46
2023-05-09T06:29:15.554Z,101745.71
2023-05-09T06:31:48.016Z,101743.52
2023-05-09T06:34:20.215Z,101734.92
2023-05-09T06:36:52.573Z,101730.19
2023-05-09T06:39:24.819Z,101731.81
2023-05-09T06:41:57.238Z,101730.19
2023-05-09T06:44:35.606Z,101726.77
2023-05-09T06:47:07.956Z,101721.98
2023-05-09T06:49:40.121Z,101723.33
2023-05-09T06:52:12.968Z,101715.71
2023-05-09T06:54:45.303Z,101710.70
2023-05-09T06:57:17.614Z,101712.91
2023-05-09T06:59:50.753Z,101705.23
2023-05-09T07:02:23.579Z,101709.75
2023-05-09T07:04:56.275Z,101701.10
2023-05-09T07:07:28.688Z,101701.87
2023-05-09T07:10:10.451Z,101703.53
2023-05-09T07:12:43.524Z,101697.73
2023-05-09T07:15:28.786Z,101693.34
2023-05-09T07:18:10.014Z,101692.41
2023-05-09T07:20:42.638Z,101691.86
2023-05-09T07:23:15.075Z,101687.80
2023-05-09T07:25:47.270Z,101687.17
2023-05-09T07:28:19.760Z,101682.75
2023-05-09T07:30:52.398Z,101682.95
2023-05-09T07:33:24.683Z,101677.48
2023-05-09T07:35:57.098Z,101669.88
2023-05-09T07:38:29.376Z,101672.77
2023-05-09T07:41:01.877Z,101669.17
2023-05-09T07:43:34.271Z,101671.98
2023-05-09T07:46:06.560Z,101672.36
2023-05-09T07:48:39.005Z,101669.31
2023-05-09T07:51:11.318Z,101664.09
2023-05-09T07:53:43.565Z,101664.59
2023-05-09T07:56:15.985Z,101662.34
2023-05-09T07:58:48.155Z,101663.60
2023-05-09T08:01:21.290Z,101658.73
2023-05-09T08:03:53.656Z,101659.41
2023-05-09T08:06:26.574Z,101657.22
2023-05-09T08:08:59.068Z,101650.70
2023-05-09T08:11:32.383Z,101652.73
2023-05-09T08:14:04.866Z,101648.84
2023-05-09T08:16:37.292Z,101648.52
2023-05-09T08:19:09.675Z,101648.85
2023-05-09T08:21:41.856Z,101644.73
2023-05-09T08:24:14.072Z,101641.34
2023-05-09T08:26:46.439Z,101633.83
2023-05-09T08:29:18.790Z,101636.23
2023-05-09T08:31:51.522Z,101634.95
2023-05-09T08:34:24.841Z,101629.80
2023-05-09T08:36:57.112Z,101628.69
2023-05-09T08:39:29.388Z,101624.64
2023-05-09T08:42:02.814Z,101618.27
2023-05-09T08:44:34.971Z,101616.63
2023-05-09T08:47:08.345Z,101608.10
2023-05-09T08:49:41.281Z,101608.45
2023-05-09T08:52:13.717Z,101608.02
2023-05-09T08:54:46.279Z,101604.31
2023-05-09T08:57:18.849Z,101603.42
2023-05-09T08:59:52.804Z,101604.05
2023-05-09T09:02:25.681Z,101601.39
2023-05-09T09:04:58.731Z,101607.66
2023-05-09T09:07:31.702Z,101605.38
2023-05-09T09:10:07.030Z,101604.80
2023-05-09T09:12:39.960Z,101601.28
2023-05-09T09:15:17.416Z,101595.64
2023-05-09T09:17:52.688Z,101580.27
2023-05-09T09:20:27.213Z,101585.94
2023-05-09T09:23:02.141Z,101588.30
2023-05-09T09:25:34.619Z,101583.55
2023-05-09T09:28:07.211Z,101563.99
2023-05-09T09:30:48.399Z,101565.89
2023-05-09T09:33:25.470Z,101548.79
2023-05-09T09:35:59.800Z,101560.59
2023-05-09T09:38:43.903Z,101554.02
2023-05-09T09:41:16.499Z,101560.42
2023-05-09T09:43:49.103Z,101556.02
2023-05-09T09:46:21.614Z,101555.55
2023-05-09T09:48:57.647Z,101554.36
2023-05-09T09:51:32.516Z,101555.14
2023-05-09T09:54:04.987Z,101547.50
2023-05-09T09:56:46.016Z,101546.59
2023-05-09T09:59:19.774Z,101543.69
2023-05-09T10:02:07.675Z,101534.52
2023-05-09T10:04:42.927Z,101535.88
2023-05-09T10:07:15.744Z,101536.56
2023-05-09T10:09:49.509Z,101530.35
2023-05-09T10:12:23.582Z,101520.95
2023-05-09T10:14:56.676Z,101517.45
2023-05-09T10:17:31.730Z,101518.17
2023-05-09T10:20:07.276Z,101518.09
2023-05-09T10:22:41.718Z,101517.59
2023-05-09T10:25:20.554Z,101515.77
2023-05-09T10:27:55.881Z,101503.16
2023-05-09T10:30:34.292Z,101499.80
2023-05-09T10:33:11.898Z,101500.23
2023-05-09T10:35:48.806Z,101490.02
2023-05-09T10:38:21.502Z,101489.98
2023-05-09T10:40:54.696Z,101491.80
2023-05-09T10:43:27.288Z,101483.70
2023-05-09T10:45:59.467Z,101483.50
2023-05-09T10:48:33.428Z,101480.44
2023-05-09T10:51:09.216Z,101474.42
2023-05-09T10:53:45.938Z,101464.15
2023-05-09T10:56:32.900Z,101463.81
2023-05-09T10:59:05.682Z,101461.42
2023-05-09T11:01:40.139Z,101458.45
2023-05-09T11:04:18.339Z,101461.41
2023-05-09T11:06:52.545Z,101456.35
2023-05-09T11:09:35.849Z,101440.70
2023-05-09T11:12:16.657Z,101443.35
2023-05-09T11:14:51.795Z,101446.31
2023-05-09T11:17:33.544Z,101441.99
2023-05-09T11:20:08.150Z,101436.40
2023-05-09T11:22:44.724Z,101428.83
2023-05-09T11:25:18.446Z,101427.55
2023-05-09T11:27:52.365Z,101430.43
2023-05-09T11:30:35.918Z,101427.62
2023-05-09T11:33:22.319Z,101420.98
2023-05-09T11:36:25.746Z,101413.79
2023-05-09T11:39:10.122Z,101408.77
2023-05-09T11:41:48.383Z,101404.70
2023-05-09T11:44:19.839Z,101403.88
2023-05-09T11:46:52.115Z,101399.77
2023-05-09T11:49:24.820Z,101375.38
2023-05-09T11:52:00.465Z,101381.19
2023-05-09T11:54:32.520Z,101374.41
2023-05-09T11:57:04.760Z,101369.16
2023-05-09T11:59:39.681Z,101366.27
2023-05-09T12:02:12.598Z,101370.42
2023-05-09T12:04:45.204Z,101350.79
2023-05-09T12:07:19.019Z,101349.52
2023-05-09T12:09:53.069Z,101343.91
2023-05-09T12:12:25.357Z,101339.73
2023-05-09T12:14:57.525Z,101358.38
2023-05-09T12:17:29.966Z,101347.16
2023-05-09T12:20:04.885Z,101336.45
2023-05-09T12:22:37.744Z,101332.23
2023-05-09T12:25:12.557Z,101321.20
2023-05-09T12:27:44.869Z,101312.43
2023-05-09T12:30:18.738Z,101311.54
2023-05-09T12:32:51.440Z,101318.45
2023-05-09T12:35:24.573Z,101312.14
2023-05-09T12:38:01.785Z,101313.90
2023-05-09T12:40:34.392Z,101303.62
2023-05-09T12:43:06.704Z,101308.11
2023-05-09T12:45:42.486Z,101297.70
2023-05-09T12:48:15.152Z,101294.73
2023-05-09T12:50:49.902Z,101292.56
2023-05-09T12:53:30.761Z,101291.03
2023-05-09T12:56:06.906Z,101289.59
2023-05-09T12:58:39.639Z,101279.09
2023-05-09T13:01:12.429Z,101281.64
2023-05-09T13:03:45.026Z,101278.06
2023-05-09T13:06:17.387Z,101267.51
2023-05-09T13:09:01.860Z,101262.13
2023-05-09T13:11:34.551Z,101253.70
2023-05-09T13:14:07.097Z,101253.02
2023-05-09T13:16:39.582Z,101251.80
2023-05-09T13:19:12.029Z,101249.55
2023-05-09T13:21:44.253Z,101249.90
2023-05-09T13:24:16.488Z,101252.13
2023-05-09T13:26:48.490Z,101250.38
2023-05-09T13:29:20.686Z,101247.52
2023-05-09T13:31:53.051Z,101241.59
2023-05-09T13:34:25.240Z,101242.38
2023-05-09T13:36:57.709Z,101236.60
2023-05-09T13:39:30.089Z,101223.84
2023-05-09T13:42:02.663Z,101200.34
2023-05-09T13:44:34.812Z,101207.13
2023-05-09T13:47:07.890Z,101210.55
2023-05-09T13:49:40.089Z,101208.88
2023-05-09T13:52:12.240Z,101205.95
2023-05-09T13:54:44.557Z,101197.80
2023-05-09T13:57:22.594Z,101194.71
2023-05-09T13:59:54.725Z,101191.98
2023-05-09T14:02:27.126Z,101191.84
2023-05-09T14:04:59.973Z,101185.23
2023-05-09T14:07:32.739Z,101178.65
2023-05-09T14:10:11.431Z,101172.53
2023-05-09T14:12:46.822Z,101166.67
2023-05-09T14:15:17.611Z,101160.35
2023-05-09T14:17:49.955Z,101155.09
2023-05-09T14:20:22.441Z,101154.92
2023-05-09T14:22:59.752Z,101149.38
2023-05-09T14:25:32.467Z,101146.48
2023-05-09T14:28:04.689Z,101140.58
2023-05-09T14:30:36.765Z,101132.73
2023-05-09T14:33:08.779Z,101129.90
2023-05-09T14:35:41.784Z,101128.11
2023-05-09T14:38:14.651Z,101128.16
2023-05-09T14:40:47.091Z,101122.96
2023-05-09T14:43:19.781Z,101125.64
2023-05-09T14:45:52.198Z,101121.56
2023-05-09T14:48:24.941Z,101118.13
2023-05-09T14:50:57.352Z,101114.80
2023-05-09T14:53:30.638Z,101117.77
2023-05-09T14:56:02.965Z,101112.14
2023-05-09T14:58:35.544Z,101106.82
2023-05-09T15:01:07.742Z,101092.31
2023-05-09T15:03:40.270Z,101104.77
2023-05-09T15:06:14.881Z,101100.73
2023-05-09T15:08:47.934Z,101096.52
2023-05-09T15:11:20.383Z,101092.31
2023-05-09T15:13:54.453Z,101087.86
2023-05-09T15:16:26.754Z,101077.52
2023-05-09T15:18:59.869Z,101083.31
2023-05-09T15:21:33.417Z,101080.00
2023-05-09T15:24:05.618Z,101081.27
2023-05-09T15:26:37.712Z,101075.73
2023-05-09T15:29:11.503Z,101080.36
2023-05-09T15:31:43.858Z,101061.65
2023-05-09T15:34:16.471Z,101074.94
2023-05-09T15:36:48.598Z,101064.67
2023-05-09T15:39:20.923Z,101061.98
2023-05-09T15:41:54.111Z,101059.92
2023-05-09T15:44:26.882Z,101056.26
2023-05-09T15:46:59.363Z,101047.81
2023-05-09T15:49:31.998Z,101042.85
2023-05-09T15:52:05.229Z,101041.27
2023-05-09T15:54:38.136Z,101037.28
2023-05-09T15:57:10.784Z,101032.85
2023-05-09T15:59:43.471Z,101035.15
2023-05-09T16:02:15.746Z,101033.08
2023-05-09T16:04:49.730Z,101028.20
2023-05-09T16:07:22.000Z,101024.41
2023-05-09T16:09:54.532Z,101012.82
2023-05-09T16:12:27.044Z,101018.83
2023-05-09T16:14:59.415Z,101010.59
2023-05-09T16:17:32.597Z,101012.42
2023-05-09T16:20:05.213Z,101010.86
2023-05-09T16:22:37.590Z,101013.51
2023-05-09T16:25:12.549Z,100999.48
2023-05-09T16:27:45.237Z,101001.21
2023-05-09T16:30:18.736Z,101000.96
2023-05-09T16:32:50.783Z,100995.75
2023-05-09T16:35:23.188Z,100998.45
2023-05-09T16:37:55.355Z,100998.62
2023-05-09T16:40:28.638Z,100992.95
2023-05-09T16:43:00.840Z,100988.88
2023-05-09T16:45:33.323Z,100980.30
2023-05-09T16:48:05.956Z,100975.38
2023-05-09T16:50:38.558Z,100976.59
2023-05-09T16:53:10.688Z,100960.42
2023-05-09T16:55:43.016Z,100972.36
2023-05-09T16:58:15.386Z,100967.99
2023-05-09T17:00:47.926Z,100969.52
2023-05-09T17:03:20.865Z,100963.94
2023-05-09T17:05:53.203Z,100961.30
2023-05-09T17:08:25.564Z,100961.86
2023-05-09T17:10:57.900Z,100954.06
2023-05-09T17:13:30.129Z,100951.04
2023-05-09T17:16:03.071Z,100945.50
2023-05-09T17:18:38.069Z,100944.12
2023-05-09T17:21:10.664Z,100941.40
2023-05-09T17:23:42.772Z,100935.37
2023-05-09T17:26:15.048Z,100934.48
2023-05-09T17:28:47.967Z,100933.05
2023-05-09T17:31:20.171Z,100932.55
2023-05-09T17:33:52.489Z,100928.20
2023-05-09T17:36:25.781Z,100929.59
2023-05-09T17:38:57.783Z,100931.23
2023-05-09T17:41:30.430Z,100932.22
2023-05-09T17:44:02.796Z,100933.95
2023-05-09T17:46:35.738Z,100936.83
2023-05-09T17:49:10.936Z,100938.10
2023-05-09T17:51:44.073Z,100939.15
2023-05-09T17:54:19.016Z,100933.15
2023-05-09T17:56:56.083Z,100934.21
2023-05-09T17:59:29.228Z,100937.60
2023-05-09T18:02:01.534Z,100937.61
2023-05-09T18:04:34.622Z,100941.91
2023-05-09T18:07:11.033Z,100936.55
2023-05-09T18:09:43.185Z,100936.31
2023-05-09T18:12:15.835Z,100937.77
2023-05-09T18:14:48.173Z,100927.96
2023-05-09T18:17:20.684Z,100934.29
2023-05-09T18:19:54.206Z,100930.65
2023-05-09T18:22:27.002Z,100935.00
2023-05-09T18:24:59.444Z,100933.02
2023-05-09T18:27:32.226Z,100932.68
2023-05-09T18:30:04.928Z,100937.88
2023-05-09T18:32:37.297Z,100932.80
2023-05-09T18:35:11.143Z,100938.05
2023-05-09T18:37:43.995Z,100936.48
2023-05-09T18:40:16.982Z,100944.43
2023-05-09T18:42:50.150Z,100943.20
2023-05-09T18:45:22.554Z,100948.37
2023-05-09T18:47:58.780Z,100948.56
2023-05-09T18:50:31.500Z,100953.15
2023-05-09T18:53:04.030Z,100943.79
2023-05-09T18:55:36.251Z,100957.01
2023-05-09T18:58:09.088Z,100955.23
2023-05-09T19:00:42.862Z,100957.23
2023-05-09T19:03:15.201Z,100957.16
2023-05-09T19:05:47.624Z,100957.25
2023-05-09T19:08:19.861Z,100956.69
2023-05-09T19:10:52.217Z,100951.38
2023-05-09T19:13:24.710Z,100951.55
2023-05-09T19:15:56.884Z,100951.31
2023-05-09T19:18:29.786Z,100950.66
2023-05-09T19:21:02.518Z,100951.15
2023-05-09T19:23:34.984Z,100949.23
2023-05-09T19:26:07.269Z,100945.84
2023-05-09T19:28:40.479Z,100946.23
2023-05-09T19:31:12.823Z,100947.43
2023-05-09T19:33:46.520Z,100945.73
2023-05-09T19:36:18.984Z,100949.50
2023-05-09T19:38:51.460Z,100947.08
2023-05-09T19:41:23.624Z,100944.76
2023-05-09T19:43:56.172Z,100929.23
2023-05-09T19:46:28.546Z,100940.21
2023-05-09T19:49:01.035Z,100926.61
2023-05-09T19:51:33.268Z,100936.75
2023-05-09T19:54:05.643Z,100934.91
2023-05-09T19:56:38.405Z,100933.69
2023-05-09T19:59:10.573Z,100918.95
2023-05-09T20:01:42.952Z,100932.33
2023-05-09T20:04:16.497Z,100933.29
2023-05-09T20:06:48.726Z,100932.27
2023-05-09T20:09:21.405Z,100928.10
2023-05-09T20:11:53.679Z,100926.52
2023-05-09T20:14:26.148Z,100924.67
2023-05-09T20:16:59.631Z,100923.59
2023-05-09T20:19:32.126Z,100919.30
2023-05-09T20:22:04.571Z,100916.41
2023-05-09T20:24:36.765Z,100917.13
2023-05-09T20:27:09.058Z,100922.66
2023-05-09T20:29:41.316Z,100919.52
2023-05-09T20:32:13.578Z,100916.62
2023-05-09T20:34:46.691Z,100919.45
2023-05-09T20:37:19.385Z,100920.77
2023-05-09T20:39:51.834Z,100922.45
2023-05-09T20:42:24.384Z,100921.39
2023-05-09T20:44:57.189Z,100919.03
2023-05-09T20:47:29.653Z,100911.66
2023-05-09T20:50:02.382Z,100913.39
2023-05-09T20:52:35.440Z,100919.80
2023-05-09T20:55:08.772Z,100917.65
2023-05-09T20:57:40.809Z,100912.80
2023-05-09T21:00:14.970Z,100910.02
2023-05-09T21:02:47.365Z,100911.34
2023-05-09T21:05:19.601Z,100906.80
2023-05-09T21:07:51.800Z,100897.70
2023-05-09T21:10:24.039Z,100903.63
2023-05-09T21:12:56.355Z,100901.12
2023-05-09T21:15:28.911Z,100900.36
2023-05-09T21:18:01.303Z,100896.17
2023-05-09T21:20:33.810Z,100892.36
2023-05-09T21:23:06.280Z,100891.80
2023-05-09T21:25:38.443Z,100892.52
2023-05-09T21:28:10.880Z,100888.92
2023-05-09T21:30:43.142Z,100887.80
2023-05-09T21:33:15.589Z,100883.81
2023-05-09T21:35:48.060Z,100874.23
2023-05-09T21:38:20.171Z,100877.17
2023-05-09T21:40:53.599Z,100872.88
2023-05-09T21:43:25.745Z,100875.44
2023-05-09T21:45:58.156Z,100869.36
2023-05-09T21:48:30.216Z,100873.25
2023-05-09T21:51:05.049Z,100873.50
2023-05-09T21:53:35.725Z,100872.11
2023-05-09T21:56:09.286Z,100871.11
2023-05-09T21:58:41.630Z,100844.48
2023-05-09T22:01:14.051Z,100870.02
2023-05-09T22:03:46.317Z,100866.61
2023-05-09T22:06:18.913Z,100868.77
2023-05-09T22:08:51.816Z,100869.16
2023-05-09T22:11:24.462Z,100861.48
2023-05-09T22:13:56.827Z,100864.05
2023-05-09T22:16:30.108Z,100860.36
2023-05-09T22:19:02.617Z,100863.79
2023-05-09T22:21:35.080Z,100860.73
2023-05-09T22:27:44.003Z,100849.30
2023-05-09T22:30:16.884Z,100850.02
2023-05-09T22:32:49.240Z,100849.30
2023-05-09T22:35:21.680Z,100851.73
2023-05-09T22:37:53.635Z,100847.33
2023-05-09T22:40:26.531Z,100844.52
2023-05-09T22:42:58.808Z,100845.03
2023-05-09T22:45:30.951Z,100842.17
2023-05-09T22:48:03.609Z,100842.65
2023-05-09T22:50:36.533Z,100839.56
2023-05-09T22:53:09.279Z,100831.48
2023-05-09T22:55:41.853Z,100841.23
2023-05-09T22:58:14.007Z,100838.98
2023-05-09T23:00:46.475Z,100834.05
2023-05-09T23:03:18.742Z,100824.64
2023-05-09T23:05:51.510Z,100833.36
2023-05-09T23:08:23.850Z,100828.49
2023-05-09T23:10:56.215Z,100830.59
2023-05-09T23:13:28.389Z,100826.52
2023-05-09T23:16:01.216Z,100823.81
2023-05-09T23:18:33.461Z,100827.73
2023-05-09T23:21:05.896Z,100809.84
2023-05-09T23:23:38.612Z,100822.50
2023-05-09T23:26:11.030Z,100821.81
2023-05-09T23:28:43.090Z,100825.29
2023-05-09T23:34:11.360Z,100819.69
2023-05-09T23:36:43.329Z,100816.50
2023-05-09T23:39:16.446Z,100817.06
2023-05-09T23:41:48.505Z,100815.33
2023-05-09T23:44:20.562Z,100808.96
2023-05-09T23:46:52.656Z,100807.80
2023-05-09T23:49:24.887Z,100808.34
2023-05-09T23:55:19.114Z,100802.70
2023-05-09T23:57:51.705Z,100795.33
